Аэропорт: Большое Савино. Пермь

ICAO: USPP

METAR:
2020-07-05 11:30:00
USPP 051130Z 19003MPS 9999 BKN030CB 24/19 Q1009 R21/090060 NOSIG RMK QFE746
METAR:
2020-07-05 07:56:00
TAF USPP 050756Z 0509/0609 27003G15MPS 9999 BKN016CB TEMPO 0509/0518 -TSRAGR BECMG 0518/0519 24003G08MPS BECMG 0605/0606 BKN020CB